Time;durP1;ratioP1;P1;durP2;ratioP2;P2;SDS_P1;SDS_P2;PMS_P1;PMS_P2;Temp;Humidity;BMP_temperature;BMP_pressure;BME280_temperature;BME280_humidity;BME280_pressure;Samples;Min_cycle;Max_cycle;Signal;HPM_P1;HPM_P2
2021/05/05 00:01:30;;;;;;;1.73;1.50;;;11.10;99.90;;;;;;6197863;23;20835;-82
2021/05/05 00:03:56;;;;;;;1.60;1.23;;;11.10;99.90;;;;;;6223404;23;20207;-82
2021/05/05 00:06:22;;;;;;;1.90;1.30;;;11.10;99.90;;;;;;6198747;23;20234;-82
2021/05/05 00:08:53;;;;;;;1.97;1.40;;;11.10;99.90;;;;;;6225519;23;20167;-81
2021/05/05 00:11:19;;;;;;;1.92;1.42;;;11.00;99.90;;;;;;6222693;23;20183;-81
2021/05/05 00:13:45;;;;;;;3.70;1.70;;;11.00;99.90;;;;;;6223184;23;20172;-82
2021/05/05 00:16:10;;;;;;;7.63;1.70;;;11.00;99.90;;;;;;6223103;23;20156;-82
2021/05/05 00:18:36;;;;;;;1.30;1.10;;;11.00;99.90;;;;;;6198376;23;20160;-81
2021/05/05 00:21:03;;;;;;;4.93;1.10;;;11.00;99.90;;;;;;6224566;23;20176;-81
2021/05/05 00:23:29;;;;;;;3.05;1.80;;;11.00;99.90;;;;;;6223072;23;20151;-82
2021/05/05 00:25:55;;;;;;;1.57;1.40;;;11.10;99.90;;;;;;6225080;23;20240;-82
2021/05/05 00:28:20;;;;;;;2.27;1.13;;;11.00;99.90;;;;;;6199419;23;20153;-82
2021/05/05 00:30:46;;;;;;;1.80;0.97;;;11.00;99.90;;;;;;6224905;23;20161;-81
2021/05/05 00:33:12;;;;;;;3.00;1.07;;;11.00;99.90;;;;;;6223311;23;20202;-81
2021/05/05 00:35:37;;;;;;;2.80;1.27;;;10.90;99.90;;;;;;6226999;23;20494;-82
2021/05/05 00:38:09;;;;;;;2.20;1.27;;;10.90;99.90;;;;;;6226628;23;20169;-82
2021/05/05 00:40:35;;;;;;;1.65;1.30;;;10.90;99.90;;;;;;6226255;23;20175;-82
2021/05/05 00:43:00;;;;;;;2.13;1.23;;;10.90;99.90;;;;;;6201915;23;20152;-81
2021/05/05 00:45:26;;;;;;;2.20;1.30;;;10.80;99.90;;;;;;6201449;23;20202;-82
2021/05/05 00:47:51;;;;;;;3.27;1.47;;;10.90;99.90;;;;;;6201077;23;20213;-81
2021/05/05 00:50:19;;;;;;;2.47;2.13;;;10.90;99.90;;;;;;6201138;23;20172;-82
2021/05/05 00:52:46;;;;;;;1.52;1.42;;;10.80;99.90;;;;;;6227755;23;20144;-82
2021/05/05 00:55:13;;;;;;;4.35;1.85;;;10.80;99.90;;;;;;6227671;23;20147;-82
2021/05/05 00:57:40;;;;;;;3.00;1.60;;;10.90;99.90;;;;;;6225993;23;20159;-81
2021/05/05 01:00:08;;;;;;;1.65;1.10;;;10.90;99.90;;;;;;6198675;23;20229;-82
2021/05/05 01:02:35;;;;;;;1.80;1.40;;;10.80;99.90;;;;;;6218310;23;20149;-81
2021/05/05 01:05:01;;;;;;;2.33;1.50;;;10.80;99.90;;;;;;6216885;23;20164;-81
2021/05/05 01:07:27;;;;;;;2.25;1.13;;;10.80;99.90;;;;;;6190516;23;20188;-82
2021/05/05 01:09:53;;;;;;;1.55;1.15;;;10.80;99.90;;;;;;6190164;23;20791;-82
2021/05/05 01:12:18;;;;;;;3.73;1.30;;;10.80;99.90;;;;;;6215321;23;20145;-83
2021/05/05 01:14:44;;;;;;;2.83;1.40;;;10.80;99.90;;;;;;6217693;23;20479;-82
2021/05/05 01:17:10;;;;;;;3.33;1.33;;;10.90;99.90;;;;;;6190964;23;20157;-82
2021/05/05 01:19:35;;;;;;;2.43;1.60;;;10.80;99.90;;;;;;6217609;23;20144;-82
2021/05/05 01:22:01;;;;;;;6.40;2.23;;;10.80;99.90;;;;;;6217776;23;20244;-81
2021/05/05 01:24:27;;;;;;;1.65;1.25;;;10.80;99.90;;;;;;6191176;23;20161;-82
2021/05/05 01:26:53;;;;;;;3.80;1.90;;;10.80;99.90;;;;;;6216784;23;20511;-84
2021/05/05 01:29:18;;;;;;;1.23;0.87;;;10.80;99.90;;;;;;6219136;23;20145;-82
2021/05/05 01:31:45;;;;;;;3.10;1.60;;;10.70;99.90;;;;;;6219045;23;20239;-82
2021/05/05 01:34:11;;;;;;;2.10;1.30;;;10.60;99.90;;;;;;6191762;23;20384;-82
2021/05/05 01:36:38;;;;;;;1.73;1.15;;;10.60;99.90;;;;;;6192051;23;20204;-82
2021/05/05 01:39:15;;;;;;;11.13;1.52;;;10.50;99.90;;;;;;6218847;23;20144;-82
2021/05/05 01:41:41;;;;;;;2.47;1.50;;;10.50;99.90;;;;;;6191563;23;20263;-82
2021/05/05 01:44:07;;;;;;;1.70;1.53;;;10.40;99.90;;;;;;6216945;23;20156;-82
2021/05/05 01:46:33;;;;;;;2.10;1.70;;;10.40;99.90;;;;;;6219838;23;20705;-82
2021/05/05 01:48:58;;;;;;;2.77;1.17;;;10.40;99.90;;;;;;6192512;23;20148;-82
2021/05/05 01:51:24;;;;;;;3.07;1.70;;;10.40;99.90;;;;;;6191252;23;20180;-82
2021/05/05 01:53:50;;;;;;;1.97;1.50;;;10.40;99.90;;;;;;6219172;23;20750;-82
2021/05/05 01:56:15;;;;;;;4.80;1.50;;;10.40;99.90;;;;;;6217653;23;20156;-81
2021/05/05 01:58:41;;;;;;;1.40;1.10;;;10.40;99.90;;;;;;6218895;23;20531;-82
2021/05/05 02:01:07;;;;;;;2.23;1.43;;;10.50;99.90;;;;;;6218890;23;20423;-81
2021/05/05 02:03:33;;;;;;;4.15;1.50;;;10.50;99.90;;;;;;6219034;23;20149;-81
2021/05/05 02:05:58;;;;;;;1.77;1.00;;;10.60;99.90;;;;;;6217821;23;20176;-81
2021/05/05 02:08:24;;;;;;;2.50;1.50;;;10.60;99.90;;;;;;6217281;23;20175;-81
2021/05/05 02:10:50;;;;;;;4.13;1.83;;;10.60;99.90;;;;;;6190352;23;20172;-82
2021/05/05 02:13:16;;;;;;;4.70;1.73;;;10.60;99.90;;;;;;6216093;23;20585;-82
2021/05/05 02:15:41;;;;;;;1.63;1.17;;;10.60;99.90;;;;;;6218025;23;20228;-82
2021/05/05 02:18:10;;;;;;;2.80;1.40;;;10.70;99.90;;;;;;6218286;23;20156;-83
2021/05/05 02:20:37;;;;;;;1.48;1.10;;;10.60;99.90;;;;;;6218180;23;20169;-83
2021/05/05 02:23:03;;;;;;;1.70;1.50;;;10.60;99.90;;;;;;6217597;23;20161;-82
2021/05/05 02:25:28;;;;;;;1.87;1.20;;;10.60;99.90;;;;;;6191904;23;20149;-83
2021/05/05 02:27:55;;;;;;;3.37;1.70;;;10.60;99.90;;;;;;6217116;23;20380;-83
2021/05/05 02:30:21;;;;;;;2.33;1.40;;;10.60;99.90;;;;;;6241712;23;20164;-81
2021/05/05 02:32:48;;;;;;;2.28;1.52;;;10.60;99.90;;;;;;6191115;23;20159;-81
2021/05/05 02:35:14;;;;;;;1.77;1.13;;;10.50;99.90;;;;;;6218104;23;20543;-82
2021/05/05 02:37:43;;;;;;;4.07;1.85;;;10.50;99.90;;;;;;6215299;23;20169;-81
2021/05/05 02:40:09;;;;;;;1.98;1.60;;;10.50;99.90;;;;;;6223217;23;20180;-82
2021/05/05 02:42:35;;;;;;;2.28;1.38;;;10.50;99.90;;;;;;6190738;23;20589;-82
2021/05/05 02:45:00;;;;;;;2.30;1.80;;;10.50;99.90;;;;;;6217657;23;20144;-82
2021/05/05 02:47:26;;;;;;;4.30;2.07;;;10.50;99.90;;;;;;6215663;23;20626;-82
2021/05/05 02:49:52;;;;;;;1.57;1.47;;;10.50;99.90;;;;;;6215497;23;20160;-83
2021/05/05 02:52:17;;;;;;;4.17;2.00;;;10.60;99.90;;;;;;6215671;23;20156;-82
2021/05/05 02:54:43;;;;;;;2.13;1.30;;;10.50;99.90;;;;;;6217385;23;20141;-82
2021/05/05 02:57:09;;;;;;;1.93;1.70;;;10.50;99.90;;;;;;6217415;23;20372;-82
2021/05/05 02:59:35;;;;;;;5.03;1.90;;;10.30;99.90;;;;;;6217282;23;20447;-83
2021/05/05 03:02:01;;;;;;;1.70;1.30;;;10.30;99.90;;;;;;6216708;23;20177;-82
2021/05/05 03:04:26;;;;;;;3.15;1.63;;;10.00;99.90;;;;;;6219122;23;20145;-82
2021/05/05 03:06:53;;;;;;;4.03;2.23;;;10.10;99.90;;;;;;6191440;23;20172;-83
2021/05/05 03:09:21;;;;;;;3.90;1.90;;;10.30;99.90;;;;;;6218890;23;20160;-82
2021/05/05 03:11:47;;;;;;;3.78;1.90;;;10.30;99.90;;;;;;6192266;23;20171;-82
2021/05/05 03:14:12;;;;;;;5.10;1.70;;;10.30;99.90;;;;;;6221873;23;20559;-82
2021/05/05 03:16:38;;;;;;;2.20;1.73;;;10.40;99.90;;;;;;6218604;23;20442;-81
2021/05/05 03:19:04;;;;;;;2.53;1.80;;;10.40;99.90;;;;;;6217496;23;20160;-83
2021/05/05 03:21:30;;;;;;;3.47;1.83;;;10.10;99.90;;;;;;6219380;23;20180;-83
2021/05/05 03:23:55;;;;;;;2.23;1.37;;;10.10;99.90;;;;;;6217592;23;20462;-82
2021/05/05 03:26:21;;;;;;;4.40;2.90;;;10.10;99.90;;;;;;6191148;23;20465;-82
2021/05/05 03:28:46;;;;;;;4.13;2.40;;;10.00;99.90;;;;;;6191547;23;20165;-83
2021/05/05 03:31:12;;;;;;;2.67;1.87;;;10.20;99.90;;;;;;6216274;23;20180;-82
2021/05/05 03:33:38;;;;;;;3.37;2.10;;;10.20;99.90;;;;;;6215924;23;20160;-82
2021/05/05 03:36:04;;;;;;;7.87;1.70;;;10.30;99.90;;;;;;6217641;23;20236;-83
2021/05/05 03:38:30;;;;;;;3.60;1.70;;;10.30;99.90;;;;;;6217677;23;20561;-83
2021/05/05 03:40:56;;;;;;;5.82;2.05;;;10.30;99.90;;;;;;6217608;23;20622;-83
2021/05/05 03:43:21;;;;;;;6.53;2.07;;;10.20;99.90;;;;;;6218967;23;20151;-83
2021/05/05 03:45:47;;;;;;;5.43;1.93;;;10.30;99.90;;;;;;6218247;23;20267;-81
2021/05/05 03:48:14;;;;;;;2.50;1.80;;;10.30;99.90;;;;;;6192890;23;20454;-82
2021/05/05 03:50:41;;;;;;;2.92;2.17;;;10.30;99.90;;;;;;6219481;23;20165;-81
2021/05/05 03:53:06;;;;;;;6.15;2.10;;;10.30;99.90;;;;;;6193235;23;20157;-82
2021/05/05 03:55:32;;;;;;;4.73;1.70;;;10.30;99.90;;;;;;6222161;23;20194;-81
2021/05/05 03:57:58;;;;;;;8.33;2.23;;;10.40;99.90;;;;;;6195932;23;20149;-83
2021/05/05 04:00:23;;;;;;;4.00;2.23;;;10.40;99.90;;;;;;6224090;23;20191;-83
2021/05/05 04:02:49;;;;;;;2.10;1.83;;;10.40;99.90;;;;;;6221021;23;20287;-83
2021/05/05 04:05:15;;;;;;;2.43;2.10;;;10.50;99.90;;;;;;6221850;23;20149;-83
2021/05/05 04:07:43;;;;;;;2.10;1.50;;;10.40;99.90;;;;;;6221540;23;20148;-81
2021/05/05 04:10:10;;;;;;;5.55;1.70;;;10.30;99.90;;;;;;6218602;23;20250;-83
2021/05/05 04:12:36;;;;;;;4.47;2.40;;;10.30;99.90;;;;;;6221842;23;20144;-82
2021/05/05 04:15:03;;;;;;;2.83;1.77;;;10.30;99.90;;;;;;6196113;23;20153;-84
2021/05/05 04:17:29;;;;;;;1.88;1.45;;;10.40;99.90;;;;;;6170607;23;20156;-84
2021/05/05 04:19:56;;;;;;;1.93;1.50;;;10.20;99.90;;;;;;6221213;23;20175;-82
2021/05/05 04:22:26;;;;;;;2.55;1.73;;;10.30;99.90;;;;;;6217741;23;20148;-82
2021/05/05 04:24:52;;;;;;;4.05;2.10;;;10.40;99.90;;;;;;6218715;23;20145;-83
2021/05/05 04:27:19;;;;;;;2.75;1.55;;;10.50;99.90;;;;;;6218066;23;20173;-82
2021/05/05 04:29:44;;;;;;;3.50;2.30;;;10.60;99.90;;;;;;6217919;23;20149;-83
2021/05/05 04:32:11;;;;;;;4.17;1.93;;;10.60;99.90;;;;;;6190071;23;20177;-84
2021/05/05 04:34:44;;;;;;;4.43;1.75;;;10.60;99.90;;;;;;6192188;23;20152;-83
2021/05/05 04:37:10;;;;;;;4.03;1.48;;;10.40;99.90;;;;;;6167139;23;20179;-83
2021/05/05 04:39:37;;;;;;;1.95;1.85;;;10.40;99.90;;;;;;6194485;23;20198;-84
2021/05/05 04:42:07;;;;;;;4.95;1.85;;;10.50;99.90;;;;;;6216693;23;20567;-83
2021/05/05 04:44:33;;;;;;;2.28;2.00;;;10.60;99.90;;;;;;6217026;23;20509;-83
2021/05/05 04:46:59;;;;;;;2.65;1.70;;;10.50;99.90;;;;;;6218136;23;20610;-83
2021/05/05 04:49:28;;;;;;;3.10;2.00;;;10.40;99.90;;;;;;6219409;23;20239;-82
2021/05/05 04:51:53;;;;;;;2.05;1.60;;;10.20;99.90;;;;;;6218201;23;20255;-83
2021/05/05 04:54:19;;;;;;;3.20;2.03;;;10.10;99.90;;;;;;6218224;23;20207;-83
2021/05/05 04:56:45;;;;;;;2.38;1.88;;;10.20;99.90;;;;;;6219327;23;20163;-82
2021/05/05 04:59:11;;;;;;;4.07;2.00;;;10.20;99.90;;;;;;6217841;23;20185;-83
2021/05/05 05:01:40;;;;;;;3.05;2.20;;;10.40;99.90;;;;;;6192937;23;20407;-84
2021/05/05 05:04:37;;;;;;;2.28;1.73;;;10.30;99.90;;;;;;6223383;23;20155;-84
2021/05/05 05:07:06;;;;;;;1.90;1.52;;;10.40;99.90;;;;;;6222514;23;20187;-85
2021/05/05 05:09:37;;;;;;;7.47;2.85;;;10.60;99.90;;;;;;6197553;23;20152;-86
2021/05/05 05:12:04;;;;;;;3.20;1.77;;;10.70;99.90;;;;;;6221731;23;20191;-86
2021/05/05 05:14:29;;;;;;;6.32;2.15;;;10.70;99.90;;;;;;6225076;23;20141;-86
2021/05/05 05:16:57;;;;;;;1.97;1.20;;;10.70;99.90;;;;;;6224222;23;20156;-85
2021/05/05 05:19:42;;;;;;;2.50;1.45;;;10.90;99.90;;;;;;6224437;23;20144;-86
2021/05/05 05:22:20;;;;;;;3.75;1.90;;;10.90;99.90;;;;;;6224022;23;20259;-87
2021/05/05 05:24:46;;;;;;;4.07;2.85;;;10.80;99.90;;;;;;6201785;23;20164;-86
2021/05/05 05:27:11;;;;;;;7.30;2.20;;;11.00;99.90;;;;;;6225188;23;20172;-85
2021/05/05 05:29:37;;;;;;;3.43;1.80;;;11.20;99.90;;;;;;6227535;23;20156;-86
2021/05/05 05:32:08;;;;;;;12.43;2.20;;;11.60;99.90;;;;;;6225069;23;20172;-85
2021/05/05 05:34:40;;;;;;;4.15;2.17;;;11.30;99.90;;;;;;6225427;23;20160;-85
2021/05/05 05:37:11;;;;;;;4.63;2.13;;;12.10;99.90;;;;;;6223505;23;20183;-85
2021/05/05 05:39:36;;;;;;;2.47;2.28;;;13.20;99.90;;;;;;6225724;23;20159;-86
2021/05/05 05:42:05;;;;;;;3.73;1.80;;;12.90;99.90;;;;;;6228002;23;20172;-85
2021/05/05 05:44:33;;;;;;;4.93;2.55;;;12.70;99.90;;;;;;6204092;23;20384;-85
2021/05/05 05:47:02;;;;;;;3.60;2.10;;;12.30;99.90;;;;;;6225703;23;20210;-85
2021/05/05 05:49:30;;;;;;;4.05;2.00;;;11.80;99.90;;;;;;6225740;23;20491;-85
2021/05/05 05:52:09;;;;;;;2.13;1.70;;;11.70;99.90;;;;;;6224834;23;20161;-87
2021/05/05 05:54:37;;;;;;;3.42;2.40;;;11.60;99.90;;;;;;6222105;23;20132;-84
2021/05/05 05:57:03;;;;;;;2.80;2.00;;;11.30;99.90;;;;;;6221332;23;20654;-85
2021/05/05 05:59:31;;;;;;;6.03;2.33;;;11.20;99.90;;;;;;6223701;23;20156;-84
2021/05/05 06:01:57;;;;;;;3.25;2.22;;;11.10;99.90;;;;;;6225852;23;20264;-83
2021/05/05 06:04:34;;;;;;;4.00;2.60;;;10.80;99.90;;;;;;6234945;23;20210;-85
2021/05/05 06:07:00;;;;;;;2.28;1.85;;;10.60;99.90;;;;;;6233265;23;20172;-84
2021/05/05 06:09:26;;;;;;;2.53;2.33;;;10.70;99.90;;;;;;6212137;23;20152;-84
2021/05/05 06:11:51;;;;;;;2.70;2.03;;;10.60;99.90;;;;;;6236668;23;20187;-83
2021/05/05 06:14:17;;;;;;;2.40;2.20;;;10.80;99.90;;;;;;6236472;23;20153;-82
2021/05/05 06:16:43;;;;;;;2.97;2.67;;;10.80;99.90;;;;;;6234071;23;20145;-83
2021/05/05 06:19:09;;;;;;;5.77;2.20;;;10.70;99.90;;;;;;6230101;23;20145;-84
2021/05/05 06:21:34;;;;;;;3.10;2.20;;;10.70;99.90;;;;;;6233316;23;20172;-82
2021/05/05 06:24:00;;;;;;;8.63;2.90;;;10.60;99.90;;;;;;6232891;23;20159;-82
2021/05/05 06:26:26;;;;;;;5.47;2.60;;;10.30;99.90;;;;;;6231199;23;20173;-82
2021/05/05 06:28:51;;;;;;;3.13;2.63;;;10.30;99.90;;;;;;6225048;23;20149;-83
2021/05/05 06:31:17;;;;;;;2.70;2.33;;;10.30;99.90;;;;;;6222105;23;20254;-84
2021/05/05 06:33:43;;;;;;;5.93;2.80;;;10.30;99.90;;;;;;6223964;23;20168;-83
2021/05/05 06:36:08;;;;;;;3.73;1.83;;;10.30;99.90;;;;;;6233352;23;20380;-83
2021/05/05 06:38:34;;;;;;;3.10;2.50;;;10.50;99.90;;;;;;6212052;23;20177;-83
2021/05/05 06:41:00;;;;;;;3.33;2.50;;;10.50;99.90;;;;;;6229574;23;20172;-84
2021/05/05 06:43:25;;;;;;;2.90;2.37;;;10.90;99.90;;;;;;6221804;23;20153;-84
2021/05/05 06:45:51;;;;;;;2.27;1.80;;;11.10;99.90;;;;;;6220722;23;20196;-83
2021/05/05 06:48:23;;;;;;;2.30;2.10;;;11.10;99.90;;;;;;6223256;23;20160;-83
2021/05/05 06:50:49;;;;;;;1.85;1.70;;;11.70;99.90;;;;;;6220263;23;20173;-83
2021/05/05 06:53:14;;;;;;;4.00;2.50;;;11.90;99.90;;;;;;6220010;23;20145;-83
2021/05/05 06:55:40;;;;;;;5.50;2.70;;;12.10;99.90;;;;;;6220071;23;20168;-83
2021/05/05 06:58:06;;;;;;;10.23;2.70;;;12.10;99.90;;;;;;6195618;23;20730;-84
2021/05/05 07:00:39;;;;;;;5.87;2.67;;;12.30;99.90;;;;;;6221286;23;20188;-84
2021/05/05 07:03:05;;;;;;;2.38;1.90;;;12.10;99.90;;;;;;6218081;23;20157;-84
2021/05/05 07:05:31;;;;;;;3.55;2.50;;;12.00;99.90;;;;;;6194574;23;20155;-83
2021/05/05 07:07:57;;;;;;;4.47;3.00;;;11.40;99.90;;;;;;6196079;23;20214;-84
2021/05/05 07:10:29;;;;;;;6.80;3.13;;;11.10;99.90;;;;;;6219937;23;20259;-85
2021/05/05 07:12:55;;;;;;;5.90;3.17;;;10.90;99.90;;;;;;6220610;23;20157;-84
2021/05/05 07:15:20;;;;;;;3.53;2.70;;;10.80;99.90;;;;;;6194754;23;20155;-84
2021/05/05 07:17:51;;;;;;;3.73;2.83;;;10.70;99.90;;;;;;6219994;23;20494;-84
2021/05/05 07:20:22;;;;;;;4.80;3.38;;;10.70;99.90;;;;;;6195584;23;20173;-84
2021/05/05 07:22:48;;;;;;;3.67;2.45;;;10.60;99.90;;;;;;6195375;23;20287;-84
2021/05/05 07:25:13;;;;;;;3.17;2.87;;;10.40;99.90;;;;;;6221175;23;20144;-84
2021/05/05 07:27:39;;;;;;;10.63;2.43;;;10.40;99.90;;;;;;6220131;23;20181;-85
2021/05/05 07:30:08;;;;;;;4.50;3.17;;;10.50;99.90;;;;;;6195741;23;20183;-85
2021/05/05 07:32:34;;;;;;;3.95;2.60;;;10.60;99.90;;;;;;6196739;23;20149;-84
2021/05/05 07:35:02;;;;;;;5.05;3.08;;;10.60;99.90;;;;;;6201865;23;20144;-84
2021/05/05 07:50:51;;;;;;;5.70;2.03;;;11.00;99.90;;;;;;6160382;23;20178;-83
2021/05/05 07:53:17;;;;;;;2.53;2.10;;;10.70;99.90;;;;;;6167832;23;20226;-83
2021/05/05 07:55:42;;;;;;;3.30;3.00;;;10.70;99.90;;;;;;6220770;23;20531;-82
2021/05/05 07:58:11;;;;;;;6.37;2.83;;;10.90;99.90;;;;;;6195697;23;20161;-83
2021/05/05 08:00:38;;;;;;;5.25;2.40;;;11.20;99.90;;;;;;6219297;23;20184;-84
2021/05/05 08:03:03;;;;;;;4.97;2.50;;;11.00;99.90;;;;;;6195458;23;20160;-83
2021/05/05 08:05:29;;;;;;;3.33;2.10;;;11.00;99.90;;;;;;6220346;23;20185;-84
2021/05/05 08:07:55;;;;;;;2.90;2.37;;;11.00;99.90;;;;;;6196004;23;20153;-84
2021/05/05 08:10:21;;;;;;;8.73;2.90;;;11.00;99.90;;;;;;6221705;23;20392;-84
2021/05/05 08:12:47;;;;;;;6.43;4.77;;;11.10;99.90;;;;;;6195206;23;20239;-84
2021/05/05 08:15:13;;;;;;;3.00;2.30;;;11.20;99.90;;;;;;6219871;23;20776;-84
2021/05/05 08:17:40;;;;;;;3.08;2.58;;;11.20;99.90;;;;;;6194213;23;20876;-84
2021/05/05 08:20:07;;;;;;;4.55;2.53;;;11.20;99.90;;;;;;6193987;23;20153;-83
2021/05/05 08:22:34;;;;;;;7.78;2.50;;;11.20;99.90;;;;;;6221927;23;20153;-83
2021/05/05 08:24:59;;;;;;;2.47;1.90;;;11.20;99.90;;;;;;6222780;23;20199;-84
2021/05/05 08:27:25;;;;;;;4.77;3.03;;;11.50;99.90;;;;;;6221905;23;20173;-83
2021/05/05 08:29:54;;;;;;;5.33;3.00;;;11.80;99.90;;;;;;6219777;23;20383;-84
2021/05/05 08:32:20;;;;;;;4.75;2.95;;;11.80;99.90;;;;;;6195548;23;20179;-83
2021/05/05 08:34:46;;;;;;;5.87;2.10;;;11.70;99.90;;;;;;6194178;23;20153;-85
2021/05/05 08:37:11;;;;;;;3.70;2.93;;;11.70;99.90;;;;;;6220167;23;20400;-82
2021/05/05 08:39:37;;;;;;;8.63;2.00;;;11.70;99.90;;;;;;6220109;23;20507;-83
2021/05/05 08:42:04;;;;;;;4.07;2.70;;;11.90;99.90;;;;;;6220965;23;20263;-84
2021/05/05 08:44:29;;;;;;;4.43;2.50;;;11.50;99.90;;;;;;6220293;23;20679;-83
2021/05/05 08:46:55;;;;;;;2.77;2.43;;;11.50;99.90;;;;;;6221171;23;20176;-83
2021/05/05 08:49:22;;;;;;;2.67;2.47;;;11.90;99.90;;;;;;6193608;23;20621;-82
2021/05/05 08:51:48;;;;;;;3.88;2.90;;;12.20;99.90;;;;;;6192932;23;20204;-83
2021/05/05 08:54:15;;;;;;;3.45;2.92;;;12.10;99.90;;;;;;6219373;23;20144;-83
2021/05/05 08:56:41;;;;;;;4.20;2.75;;;12.10;99.90;;;;;;6192339;23;20156;-82
2021/05/05 08:59:09;;;;;;;2.78;2.50;;;11.70;99.90;;;;;;6191830;23;20498;-82
2021/05/05 09:01:39;;;;;;;2.90;2.53;;;11.50;99.90;;;;;;6219244;23;20169;-81
2021/05/05 09:04:05;;;;;;;3.72;2.35;;;11.20;99.90;;;;;;6193785;23;20159;-83
2021/05/05 09:06:49;;;;;;;3.88;2.30;;;11.20;99.90;;;;;;6218837;23;20248;-83
2021/05/05 09:09:44;;;;;;;3.25;2.40;;;11.30;99.90;;;;;;6191806;23;20145;-83
2021/05/05 09:12:24;;;;;;;2.75;2.20;;;11.50;99.90;;;;;;6191550;23;20255;-82
2021/05/05 09:14:59;;;;;;;4.10;1.80;;;11.30;99.90;;;;;;6218022;23;20210;-82
2021/05/05 09:17:44;;;;;;;3.50;1.63;;;11.40;99.90;;;;;;6216741;23;20202;-83
2021/05/05 09:20:10;;;;;;;1.95;1.70;;;11.60;99.90;;;;;;6216900;23;20258;-82
2021/05/05 09:22:36;;;;;;;3.73;1.87;;;11.80;99.90;;;;;;6217973;23;20150;-82
2021/05/05 09:25:06;;;;;;;4.30;1.65;;;11.70;99.90;;;;;;6218167;23;20171;-82
2021/05/05 09:27:35;;;;;;;1.77;1.45;;;11.50;99.90;;;;;;6218048;23;20195;-82
2021/05/05 09:30:01;;;;;;;2.05;1.65;;;11.50;99.90;;;;;;6218942;23;20195;-81
2021/05/05 09:32:27;;;;;;;2.53;1.90;;;11.70;99.90;;;;;;6192167;23;20232;-81
2021/05/05 09:35:04;;;;;;;1.90;1.70;;;11.80;99.90;;;;;;6193444;23;20144;-82
2021/05/05 09:37:31;;;;;;;1.70;1.50;;;11.90;99.90;;;;;;6192522;23;20175;-81
2021/05/05 09:40:04;;;;;;;1.35;1.25;;;12.00;99.90;;;;;;6191581;23;20183;-82
2021/05/05 09:42:32;;;;;;;2.10;1.60;;;11.90;99.90;;;;;;6217764;23;20209;-82
2021/05/05 09:45:07;;;;;;;1.65;1.52;;;11.70;99.90;;;;;;6217554;23;20233;-81
2021/05/05 09:47:52;;;;;;;2.60;1.38;;;11.60;99.90;;;;;;6191619;23;20179;-82
2021/05/05 09:50:44;;;;;;;3.28;1.60;;;11.50;99.90;;;;;;6192785;23;20252;-82
2021/05/05 09:53:32;;;;;;;3.63;1.75;;;11.60;99.90;;;;;;6221709;23;20133;-82
2021/05/05 09:55:57;;;;;;;1.40;1.27;;;11.50;99.90;;;;;;6222032;23;20133;-82
2021/05/05 09:58:32;;;;;;;2.23;1.73;;;11.50;99.90;;;;;;6220294;23;20145;-82
2021/05/05 10:01:04;;;;;;;5.45;2.38;;;11.60;99.90;;;;;;6221003;23;20172;-80
2021/05/05 10:03:47;;;;;;;10.60;2.50;;;11.40;99.90;;;;;;6193833;23;20582;-83
2021/05/05 10:06:27;;;;;;;3.30;2.15;;;10.60;99.90;;;;;;6220273;23;20247;-82
2021/05/05 10:09:06;;;;;;;2.45;2.25;;;10.00;99.90;;;;;;6218843;23;20129;-82
2021/05/05 10:11:47;;;;;;;2.13;1.92;;;9.80;99.90;;;;;;6194892;23;20656;-83
2021/05/05 10:14:17;;;;;;;4.30;2.60;;;10.00;99.90;;;;;;6194202;23;20148;-83
2021/05/05 10:16:47;;;;;;;5.15;2.03;;;10.50;99.90;;;;;;6194356;23;20136;-83
2021/05/05 10:19:12;;;;;;;2.67;1.92;;;10.70;99.90;;;;;;6193143;23;20160;-82
2021/05/05 10:21:42;;;;;;;2.60;2.27;;;10.90;99.90;;;;;;6219685;23;20479;-81
2021/05/05 10:24:09;;;;;;;2.15;1.95;;;11.00;99.90;;;;;;6220699;23;20156;-83
2021/05/05 10:26:35;;;;;;;1.70;1.60;;;11.30;99.90;;;;;;6223289;23;20168;-82
2021/05/05 10:29:00;;;;;;;2.70;2.30;;;11.50;99.90;;;;;;6219999;23;20149;-81
2021/05/05 10:31:28;;;;;;;2.50;2.23;;;11.70;99.90;;;;;;6217236;23;20538;-81
2021/05/05 10:33:59;;;;;;;2.40;2.13;;;11.80;99.90;;;;;;6218903;23;20153;-82
2021/05/05 10:36:45;;;;;;;2.40;2.20;;;11.90;99.90;;;;;;6219045;23;20530;-82
2021/05/05 10:39:17;;;;;;;2.75;1.90;;;11.90;99.90;;;;;;6193612;23;20153;-83
2021/05/05 10:41:59;;;;;;;2.78;2.53;;;12.10;99.90;;;;;;6191742;23;20495;-84
2021/05/05 10:44:54;;;;;;;2.78;2.25;;;12.30;99.90;;;;;;6195372;23;20148;-82
2021/05/05 10:47:31;;;;;;;4.30;1.92;;;12.10;99.90;;;;;;6194638;23;20177;-82
2021/05/05 10:50:03;;;;;;;2.33;2.05;;;12.20;99.90;;;;;;6194335;23;20144;-83
2021/05/05 10:52:53;;;;;;;2.75;2.00;;;12.30;99.90;;;;;;6221345;23;20149;-83
2021/05/05 10:55:34;;;;;;;2.55;1.55;;;12.30;99.90;;;;;;6181218;23;20159;-83
2021/05/05 10:58:18;;;;;;;1.65;1.30;;;12.40;99.90;;;;;;6220960;23;20139;-82
2021/05/05 11:00:46;;;;;;;1.75;1.50;;;12.30;99.90;;;;;;6220426;23;20195;-83
2021/05/05 11:03:12;;;;;;;3.80;2.40;;;12.10;99.90;;;;;;6196061;23;20152;-82
2021/05/05 11:05:48;;;;;;;1.70;1.60;;;12.10;99.90;;;;;;6222563;23;20156;-83
2021/05/05 11:08:29;;;;;;;3.13;1.63;;;12.20;99.90;;;;;;6217478;23;20129;-82
2021/05/05 11:10:57;;;;;;;3.50;1.77;;;12.20;99.90;;;;;;6219139;23;20172;-82
2021/05/05 11:13:23;;;;;;;1.75;1.30;;;12.40;99.90;;;;;;6196464;23;20312;-82
2021/05/05 11:15:53;;;;;;;2.20;1.88;;;12.10;99.90;;;;;;6193744;23;20376;-83
2021/05/05 11:18:25;;;;;;;5.85;2.45;;;12.20;99.90;;;;;;6197006;23;20222;-83
2021/05/05 11:21:08;;;;;;;2.10;1.48;;;12.20;99.90;;;;;;6197142;23;20203;-83
2021/05/05 11:24:03;;;;;;;3.08;2.10;;;12.30;99.90;;;;;;6202843;23;20163;-83
2021/05/05 11:26:44;;;;;;;1.10;1.00;;;12.40;99.90;;;;;;6226252;23;20172;-82
2021/05/05 11:29:35;;;;;;;1.40;1.20;;;12.50;99.90;;;;;;6201512;23;20466;-84
2021/05/05 11:32:07;;;;;;;1.50;0.95;;;12.50;99.90;;;;;;6199069;23;20172;-82
2021/05/05 11:34:38;;;;;;;2.05;1.63;;;12.50;99.00;;;;;;6199078;23;20168;-81
2021/05/05 11:37:21;;;;;;;2.83;1.02;;;12.60;98.20;;;;;;6200215;23;20199;-82
2021/05/05 11:39:55;;;;;;;4.63;1.35;;;12.60;97.50;;;;;;6234503;23;20148;-84
2021/05/05 11:42:32;;;;;;;1.08;0.80;;;12.50;95.50;;;;;;6234676;23;20177;-83
2021/05/05 11:45:00;;;;;;;1.60;1.10;;;12.60;96.20;;;;;;6230658;23;20145;-83
2021/05/05 11:47:35;;;;;;;1.55;0.80;;;12.60;94.70;;;;;;6201337;23;20180;-83
2021/05/05 11:50:04;;;;;;;7.18;1.00;;;12.70;94.50;;;;;;6205116;23;20147;-83
2021/05/05 11:52:56;;;;;;;1.42;0.95;;;12.50;92.60;;;;;;6204585;23;20184;-84
2021/05/05 11:55:29;;;;;;;1.80;1.00;;;12.30;91.40;;;;;;6211592;23;20157;-83
2021/05/05 11:58:02;;;;;;;2.15;0.90;;;12.50;91.80;;;;;;6225800;23;20152;-82
2021/05/05 12:00:39;;;;;;;2.25;1.10;;;12.70;89.60;;;;;;6207099;23;20168;-83
2021/05/05 12:03:15;;;;;;;1.05;0.85;;;12.70;87.40;;;;;;6237733;23;20216;-84
2021/05/05 12:05:46;;;;;;;7.63;1.38;;;12.80;85.90;;;;;;6203786;23;20150;-83
2021/05/05 12:08:26;;;;;;;3.38;0.90;;;12.80;83.60;;;;;;6223547;23;20140;-83
2021/05/05 12:11:03;;;;;;;4.60;1.00;;;12.90;83.80;;;;;;6196687;23;20152;-83
2021/05/05 12:13:34;;;;;;;5.88;1.30;;;12.90;84.20;;;;;;6222252;23;20149;-83
2021/05/05 12:16:33;;;;;;;2.88;0.85;;;12.70;82.50;;;;;;6199231;23;20156;-85
2021/05/05 12:19:00;;;;;;;1.20;0.80;;;12.60;79.70;;;;;;6212790;23;20144;-83
2021/05/05 12:21:31;;;;;;;1.52;1.10;;;12.70;74.40;;;;;;6223779;23;20180;-85
2021/05/05 12:24:03;;;;;;;2.75;0.88;;;12.80;74.00;;;;;;6228951;23;20148;-83
2021/05/05 12:26:37;;;;;;;1.17;0.95;;;12.80;75.30;;;;;;6203385;23;20177;-84
2021/05/05 12:29:07;;;;;;;7.63;1.25;;;12.90;74.50;;;;;;6223323;23;20542;-84
2021/05/05 12:31:38;;;;;;;5.05;1.60;;;13.00;75.60;;;;;;6222080;23;20165;-85
2021/05/05 12:34:32;;;;;;;1.50;1.10;;;12.90;75.90;;;;;;6224236;23;20140;-85
2021/05/05 12:37:00;;;;;;;7.18;2.05;;;12.80;78.00;;;;;;6225248;23;20160;-84
2021/05/05 12:39:25;;;;;;;3.20;1.20;;;13.00;79.30;;;;;;6233299;23;20208;-83
2021/05/05 12:41:55;;;;;;;3.63;1.40;;;13.20;78.60;;;;;;6194792;23;20172;-81
2021/05/05 12:44:33;;;;;;;10.00;2.22;;;13.00;75.20;;;;;;6200198;23;20149;-82
2021/05/05 12:47:20;;;;;;;1.60;1.25;;;13.00;74.70;;;;;;6223366;23;20180;-81
2021/05/05 12:49:57;;;;;;;1.55;1.40;;;12.80;74.40;;;;;;6226055;23;20478;-82
2021/05/05 12:52:51;;;;;;;2.20;1.08;;;12.60;75.10;;;;;;6199163;23;20525;-83
2021/05/05 12:55:32;;;;;;;1.83;1.63;;;12.70;77.70;;;;;;6223946;23;20590;-83
2021/05/05 12:58:13;;;;;;;1.65;1.40;;;12.90;78.90;;;;;;6197752;23;20160;-84
2021/05/05 13:01:27;;;;;;;3.53;1.80;;;12.80;79.10;;;;;;6232646;23;20145;-85
2021/05/05 13:04:05;;;;;;;1.75;1.25;;;12.70;79.90;;;;;;6201268;23;20147;-82
2021/05/05 13:06:47;;;;;;;2.20;1.60;;;12.70;81.20;;;;;;6196157;23;20180;-86
2021/05/05 13:09:16;;;;;;;2.67;1.70;;;12.80;81.90;;;;;;6222083;23;20214;-83
2021/05/05 13:11:48;;;;;;;5.38;2.20;;;12.90;85.00;;;;;;6197864;23;20629;-83